Time;durP1;ratioP1;P1;durP2;ratioP2;P2;SDS_P1;SDS_P2;PMS_P1;PMS_P2;Temp;Humidity;BMP_temperature;BMP_pressure;BME280_temperature;BME280_humidity;BME280_pressure;Samples;Min_cycle;Max_cycle;Signal;HPM_P1;HPM_P2
2023/06/11 00:02:08;;;;;;;25.98;17.27;;;;;;;;;;5017008;28;20045;-48
2023/06/11 00:04:37;;;;;;;25.08;17.67;;;;;;;;;;5014355;28;20049;-47
2023/06/11 00:07:06;;;;;;;23.80;17.77;;;;;;;;;;5020748;28;20068;-49
2023/06/11 00:09:34;;;;;;;26.63;17.90;;;;;;;;;;5007230;28;20029;-46
2023/06/11 00:12:02;;;;;;;25.88;18.48;;;;;;;;;;5029294;28;20052;-46
2023/06/11 00:14:29;;;;;;;27.77;19.15;;;;;;;;;;5013885;28;20068;-46
2023/06/11 00:16:57;;;;;;;28.40;19.77;;;;;;;;;;5023914;28;20276;-45
2023/06/11 00:19:28;;;;;;;26.58;18.88;;;;;;;;;;5021838;28;20033;-46
2023/06/11 00:22:02;;;;;;;24.33;18.47;;;;;;;;;;5032007;28;20036;-45
2023/06/11 00:24:32;;;;;;;25.52;17.75;;;;;;;;;;5014873;28;20490;-47
2023/06/11 00:27:01;;;;;;;23.88;17.23;;;;;;;;;;5018467;28;20049;-44
2023/06/11 00:29:29;;;;;;;39.30;17.92;;;;;;;;;;5028722;28;20547;-46
2023/06/11 00:31:57;;;;;;;24.77;18.13;;;;;;;;;;5011756;28;20786;-46
2023/06/11 00:34:25;;;;;;;23.80;17.87;;;;;;;;;;5028912;28;20045;-45
2023/06/11 00:36:52;;;;;;;25.55;18.65;;;;;;;;;;5019150;28;20040;-45
2023/06/11 00:39:20;;;;;;;25.27;18.75;;;;;;;;;;5028403;28;20149;-46
2023/06/11 00:41:51;;;;;;;25.92;18.42;;;;;;;;;;5013928;28;20224;-44
2023/06/11 00:44:21;;;;;;;25.58;18.65;;;;;;;;;;5030675;28;20075;-45
2023/06/11 00:46:51;;;;;;;26.43;18.53;;;;;;;;;;5009094;28;20037;-45
2023/06/11 00:49:20;;;;;;;26.58;18.85;;;;;;;;;;5027709;28;20047;-45
2023/06/11 00:51:47;;;;;;;29.15;19.58;;;;;;;;;;5011678;28;20037;-45
2023/06/11 00:54:16;;;;;;;29.83;20.70;;;;;;;;;;5021134;28;20049;-45
2023/06/11 00:56:44;;;;;;;29.88;20.42;;;;;;;;;;5024163;28;20124;-46
2023/06/11 00:59:15;;;;;;;32.57;21.83;;;;;;;;;;5010169;28;20056;-46
2023/06/11 01:01:45;;;;;;;30.63;21.35;;;;;;;;;;5017618;28;20705;-50
2023/06/11 01:04:17;;;;;;;31.80;22.75;;;;;;;;;;5013860;28;20037;-45
2023/06/11 01:06:49;;;;;;;31.95;23.10;;;;;;;;;;5019032;28;20033;-45
2023/06/11 01:09:19;;;;;;;32.85;22.40;;;;;;;;;;4975901;28;20037;-48
2023/06/11 01:11:48;;;;;;;38.37;24.60;;;;;;;;;;5027587;28;20496;-47
2023/06/11 01:14:19;;;;;;;36.85;24.52;;;;;;;;;;5018543;28;20302;-46
2023/06/11 01:16:48;;;;;;;38.67;25.85;;;;;;;;;;5002837;28;20076;-45
2023/06/11 01:19:28;;;;;;;36.08;25.23;;;;;;;;;;5013945;28;20462;-45
2023/06/11 01:22:00;;;;;;;35.45;24.10;;;;;;;;;;5026823;28;20040;-46
2023/06/11 01:24:40;;;;;;;38.00;25.10;;;;;;;;;;5014706;28;20064;-46
2023/06/11 01:27:10;;;;;;;35.38;24.27;;;;;;;;;;4920917;28;20036;-49
2023/06/11 01:29:45;;;;;;;40.88;24.38;;;;;;;;;;4915178;28;20421;-46
2023/06/11 01:32:13;;;;;;;37.30;24.08;;;;;;;;;;4902924;28;20045;-47
2023/06/11 01:34:42;;;;;;;36.30;23.20;;;;;;;;;;4914433;28;20363;-45
2023/06/11 01:37:14;;;;;;;36.67;24.20;;;;;;;;;;4903918;28;20048;-45
2023/06/11 01:39:45;;;;;;;35.72;24.15;;;;;;;;;;4898031;28;20458;-45
2023/06/11 01:42:13;;;;;;;36.60;24.05;;;;;;;;;;4905101;28;20981;-45
2023/06/11 01:44:43;;;;;;;36.03;23.60;;;;;;;;;;4916343;28;20052;-45
2023/06/11 01:47:11;;;;;;;35.70;23.75;;;;;;;;;;4898003;28;20083;-46
2023/06/11 01:49:39;;;;;;;36.10;23.80;;;;;;;;;;4919066;28;20162;-44
2023/06/11 01:52:09;;;;;;;38.58;24.10;;;;;;;;;;4882102;28;20791;-45
2023/06/11 01:54:37;;;;;;;37.75;24.02;;;;;;;;;;4911943;28;20032;-45
2023/06/11 01:57:09;;;;;;;37.67;24.15;;;;;;;;;;4903283;28;20688;-45
2023/06/11 01:59:39;;;;;;;33.47;22.60;;;;;;;;;;4917911;28;20147;-46
2023/06/11 02:02:11;;;;;;;36.97;23.63;;;;;;;;;;4896940;28;20679;-45
2023/06/11 02:04:39;;;;;;;36.55;24.08;;;;;;;;;;4916090;28;21688;-45
2023/06/11 02:07:08;;;;;;;36.58;23.98;;;;;;;;;;4894997;28;20041;-45
2023/06/11 02:09:37;;;;;;;38.20;24.00;;;;;;;;;;4892422;28;20282;-46
2023/06/11 02:12:05;;;;;;;37.85;23.05;;;;;;;;;;4906114;28;20059;-44
2023/06/11 02:14:35;;;;;;;38.37;24.37;;;;;;;;;;4910878;28;21011;-47
2023/06/11 02:17:04;;;;;;;37.78;23.73;;;;;;;;;;4906405;28;20490;-46
2023/06/11 02:19:33;;;;;;;37.95;24.77;;;;;;;;;;4892961;28;20574;-47
2023/06/11 02:22:07;;;;;;;39.53;24.45;;;;;;;;;;4908917;28;20036;-45
2023/06/11 02:24:37;;;;;;;37.97;23.98;;;;;;;;;;4903664;28;20347;-48
2023/06/11 02:27:06;;;;;;;37.10;24.53;;;;;;;;;;4884590;28;20041;-44
2023/06/11 02:29:34;;;;;;;38.90;23.73;;;;;;;;;;4915367;28;21482;-45
2023/06/11 02:32:04;;;;;;;36.17;23.27;;;;;;;;;;4898846;28;20430;-47
2023/06/11 02:34:35;;;;;;;37.75;22.60;;;;;;;;;;4902668;28;20854;-45
2023/06/11 02:37:05;;;;;;;39.42;22.85;;;;;;;;;;4912246;28;20426;-47
2023/06/11 02:39:34;;;;;;;39.10;23.03;;;;;;;;;;4908507;28;20255;-44
2023/06/11 02:42:05;;;;;;;39.22;23.65;;;;;;;;;;4900677;28;21043;-45
2023/06/11 02:44:38;;;;;;;37.30;24.08;;;;;;;;;;4910496;28;20033;-47
2023/06/11 02:47:09;;;;;;;40.15;24.50;;;;;;;;;;4935318;28;20048;-45
2023/06/11 02:49:41;;;;;;;38.58;23.83;;;;;;;;;;4884966;28;20891;-46
2023/06/11 02:52:09;;;;;;;40.23;23.53;;;;;;;;;;4917736;28;20044;-46
2023/06/11 02:54:37;;;;;;;40.35;24.00;;;;;;;;;;4911694;28;20055;-48
2023/06/11 02:57:06;;;;;;;43.50;24.67;;;;;;;;;;4908170;28;20279;-44
2023/06/11 02:59:34;;;;;;;41.05;25.00;;;;;;;;;;4887060;28;20053;-43
2023/06/11 03:02:03;;;;;;;39.95;24.95;;;;;;;;;;4901666;28;20902;-44
2023/06/11 03:04:31;;;;;;;43.43;26.43;;;;;;;;;;4921178;28;20470;-46
2023/06/11 03:07:00;;;;;;;39.30;25.20;;;;;;;;;;4913288;28;20051;-44
2023/06/11 03:09:29;;;;;;;43.00;26.27;;;;;;;;;;4896447;28;20863;-44
2023/06/11 03:11:58;;;;;;;41.33;25.92;;;;;;;;;;4915215;28;20559;-44
2023/06/11 03:14:27;;;;;;;44.10;26.67;;;;;;;;;;4873268;28;20549;-48
2023/06/11 03:16:56;;;;;;;40.43;25.87;;;;;;;;;;4904554;28;20730;-43
2023/06/11 03:19:24;;;;;;;42.03;27.00;;;;;;;;;;4918290;28;20060;-47
2023/06/11 03:21:52;;;;;;;44.58;28.05;;;;;;;;;;4907271;28;20686;-44
2023/06/11 03:24:22;;;;;;;42.25;27.35;;;;;;;;;;4916365;28;20041;-44
2023/06/11 03:26:50;;;;;;;45.42;28.23;;;;;;;;;;4901774;28;20045;-44
2023/06/11 03:29:21;;;;;;;43.03;28.07;;;;;;;;;;4924043;28;20978;-44
2023/06/11 03:31:51;;;;;;;46.13;29.00;;;;;;;;;;4905258;28;20122;-43
2023/06/11 03:34:21;;;;;;;49.90;29.48;;;;;;;;;;4898346;28;20052;-44
2023/06/11 03:36:51;;;;;;;42.08;28.25;;;;;;;;;;4916921;28;20038;-43
2023/06/11 03:39:18;;;;;;;50.13;31.00;;;;;;;;;;4895068;28;20225;-44
2023/06/11 03:41:51;;;;;;;49.60;30.03;;;;;;;;;;4920791;28;20117;-44
2023/06/11 03:44:21;;;;;;;46.45;29.15;;;;;;;;;;4931894;28;20064;-44
2023/06/11 03:46:50;;;;;;;49.45;29.95;;;;;;;;;;4923172;28;20491;-43
2023/06/11 03:49:19;;;;;;;49.15;29.70;;;;;;;;;;4892006;28;20127;-46
2023/06/11 03:52:00;;;;;;;45.63;29.08;;;;;;;;;;4903191;28;20068;-47
2023/06/11 03:54:31;;;;;;;48.80;29.23;;;;;;;;;;4903106;28;20052;-45
2023/06/11 03:57:02;;;;;;;48.30;29.05;;;;;;;;;;4916761;28;20040;-47
2023/06/11 03:59:31;;;;;;;45.67;27.05;;;;;;;;;;4882021;28;20703;-45
2023/06/11 04:02:00;;;;;;;41.88;27.08;;;;;;;;;;4911164;28;20033;-44
2023/06/11 04:04:29;;;;;;;44.58;28.35;;;;;;;;;;4911262;28;20781;-45
2023/06/11 04:06:57;;;;;;;43.10;26.53;;;;;;;;;;4895016;28;20045;-44
2023/06/11 04:09:25;;;;;;;39.88;26.02;;;;;;;;;;4916683;28;20063;-45
2023/06/11 04:11:56;;;;;;;40.08;25.73;;;;;;;;;;4890083;28;21304;-45
2023/06/11 04:14:26;;;;;;;41.42;25.80;;;;;;;;;;4913366;28;20047;-45
2023/06/11 04:16:56;;;;;;;44.80;27.17;;;;;;;;;;4889532;28;20720;-45
2023/06/11 04:19:24;;;;;;;43.23;27.37;;;;;;;;;;4947935;28;20033;-45
2023/06/11 04:21:52;;;;;;;44.78;26.65;;;;;;;;;;4909519;28;20626;-46
2023/06/11 04:24:23;;;;;;;43.20;26.88;;;;;;;;;;4921323;28;20072;-46
2023/06/11 04:26:51;;;;;;;45.55;27.73;;;;;;;;;;4884969;28;20816;-47
2023/06/11 04:29:20;;;;;;;46.65;28.30;;;;;;;;;;4904689;28;20851;-47
2023/06/11 04:31:50;;;;;;;41.83;25.77;;;;;;;;;;4911651;28;20045;-46
2023/06/11 04:34:20;;;;;;;42.08;26.98;;;;;;;;;;4917509;28;20661;-47
2023/06/11 04:36:51;;;;;;;44.38;26.83;;;;;;;;;;4906400;28;20048;-44
2023/06/11 04:39:22;;;;;;;42.00;24.88;;;;;;;;;;4905733;28;20646;-47
2023/06/11 04:41:53;;;;;;;39.25;23.30;;;;;;;;;;4909754;28;20309;-45
2023/06/11 04:44:26;;;;;;;42.20;25.27;;;;;;;;;;4911929;28;20545;-46
2023/06/11 04:46:57;;;;;;;37.28;23.98;;;;;;;;;;4912328;28;20134;-45
2023/06/11 04:49:27;;;;;;;37.72;24.40;;;;;;;;;;4897987;28;20585;-44
2023/06/11 04:51:58;;;;;;;42.33;25.65;;;;;;;;;;4911838;28;20932;-45
2023/06/11 04:54:27;;;;;;;40.90;25.67;;;;;;;;;;4894269;28;20513;-45
2023/06/11 04:56:56;;;;;;;39.03;25.10;;;;;;;;;;4952914;28;20160;-46
2023/06/11 04:59:24;;;;;;;42.22;26.30;;;;;;;;;;4915545;28;20044;-44
2023/06/11 05:01:59;;;;;;;43.58;25.23;;;;;;;;;;4909430;28;20655;-44
2023/06/11 05:04:31;;;;;;;42.75;27.55;;;;;;;;;;4909237;28;20060;-44
2023/06/11 05:07:03;;;;;;;41.78;26.63;;;;;;;;;;4894580;28;20040;-44
2023/06/11 05:09:31;;;;;;;50.47;28.43;;;;;;;;;;4922638;28;20047;-43
2023/06/11 05:11:59;;;;;;;51.70;29.05;;;;;;;;;;4886986;28;21279;-45
2023/06/11 05:14:29;;;;;;;51.58;29.75;;;;;;;;;;4917529;28;20751;-44
2023/06/11 05:16:59;;;;;;;45.70;28.25;;;;;;;;;;4893122;28;20049;-46
2023/06/11 05:19:34;;;;;;;48.95;28.08;;;;;;;;;;4922286;28;20262;-47
2023/06/11 05:22:08;;;;;;;48.17;30.10;;;;;;;;;;4915337;28;20049;-45
2023/06/11 05:24:41;;;;;;;51.22;28.20;;;;;;;;;;4907045;28;20415;-46
2023/06/11 05:27:13;;;;;;;51.17;30.05;;;;;;;;;;4921972;28;20036;-44
2023/06/11 05:29:42;;;;;;;47.15;28.10;;;;;;;;;;4892116;28;20051;-46
2023/06/11 05:32:15;;;;;;;44.97;27.73;;;;;;;;;;4915494;28;21657;-46
2023/06/11 05:34:44;;;;;;;43.70;27.60;;;;;;;;;;4889393;28;20679;-44
2023/06/11 05:37:12;;;;;;;46.97;27.60;;;;;;;;;;4904287;28;20257;-48
2023/06/11 05:39:43;;;;;;;45.97;27.70;;;;;;;;;;4906546;28;20518;-46
2023/06/11 05:42:15;;;;;;;43.22;27.23;;;;;;;;;;4911020;28;20369;-44
2023/06/11 05:44:46;;;;;;;41.72;26.83;;;;;;;;;;4913614;28;20039;-45
2023/06/11 05:47:20;;;;;;;42.67;26.67;;;;;;;;;;4907442;28;20234;-46
2023/06/11 05:49:48;;;;;;;44.08;27.05;;;;;;;;;;4911350;28;20239;-46
2023/06/11 05:52:29;;;;;;;46.63;28.02;;;;;;;;;;4909886;28;20789;-44
2023/06/11 05:54:59;;;;;;;42.95;28.02;;;;;;;;;;4913296;28;20051;-47
2023/06/11 05:57:28;;;;;;;46.40;28.30;;;;;;;;;;4887699;28;21029;-45
2023/06/11 05:59:58;;;;;;;41.97;27.17;;;;;;;;;;4910156;28;20106;-46
2023/06/11 06:02:30;;;;;;;45.03;29.05;;;;;;;;;;4891281;28;20048;-45
2023/06/11 06:05:00;;;;;;;49.55;29.05;;;;;;;;;;4894894;28;20072;-44
2023/06/11 06:07:32;;;;;;;45.92;30.15;;;;;;;;;;4906970;28;20033;-46
2023/06/11 06:10:00;;;;;;;44.33;29.67;;;;;;;;;;4905840;28;20045;-44
2023/06/11 06:12:32;;;;;;;43.97;29.40;;;;;;;;;;4899590;28;20128;-44
2023/06/11 06:14:59;;;;;;;49.83;29.85;;;;;;;;;;4880484;28;20045;-48
2023/06/11 06:17:32;;;;;;;48.22;29.92;;;;;;;;;;4882157;28;20962;-45
2023/06/11 06:20:00;;;;;;;45.72;29.45;;;;;;;;;;4890132;28;20045;-46
2023/06/11 06:22:29;;;;;;;48.03;30.77;;;;;;;;;;4884668;28;20065;-45
2023/06/11 06:24:57;;;;;;;46.37;30.97;;;;;;;;;;4890143;28;20057;-45
2023/06/11 06:27:30;;;;;;;47.38;30.33;;;;;;;;;;4871904;28;20802;-45
2023/06/11 06:30:01;;;;;;;43.28;28.60;;;;;;;;;;4889076;28;20042;-46
2023/06/11 06:32:30;;;;;;;46.17;28.10;;;;;;;;;;4891446;28;20038;-44
2023/06/11 06:35:01;;;;;;;42.22;27.75;;;;;;;;;;4897726;28;20059;-44
2023/06/11 06:37:29;;;;;;;46.40;30.07;;;;;;;;;;4887187;28;20456;-44
2023/06/11 06:39:59;;;;;;;47.28;31.00;;;;;;;;;;4884396;28;20314;-43
2023/06/11 06:42:29;;;;;;;48.90;30.10;;;;;;;;;;4884687;28;20240;-45
2023/06/11 06:44:57;;;;;;;45.40;28.95;;;;;;;;;;4891958;28;20744;-44
2023/06/11 06:47:29;;;;;;;46.72;30.35;;;;;;;;;;4887522;28;20451;-43
2023/06/11 06:49:59;;;;;;;49.93;30.47;;;;;;;;;;4882859;28;20041;-44
2023/06/11 06:52:28;;;;;;;38.40;27.13;;;;;;;;;;4882600;28;20033;-44
2023/06/11 06:54:56;;;;;;;43.55;28.25;;;;;;;;;;4894785;28;20314;-44
2023/06/11 06:57:26;;;;;;;42.58;29.25;;;;;;;;;;4894743;28;20647;-44
2023/06/11 06:59:54;;;;;;;41.13;27.73;;;;;;;;;;4893304;28;20041;-44
2023/06/11 07:02:25;;;;;;;39.63;27.87;;;;;;;;;;4892820;28;20282;-45
2023/06/11 07:04:56;;;;;;;36.58;26.45;;;;;;;;;;4897751;28;20095;-45
2023/06/11 07:07:27;;;;;;;39.00;27.00;;;;;;;;;;4887145;28;20514;-49
2023/06/11 07:09:56;;;;;;;37.65;26.17;;;;;;;;;;4883489;28;20411;-44
2023/06/11 07:12:27;;;;;;;37.55;27.25;;;;;;;;;;4910550;28;20620;-45
2023/06/11 07:14:55;;;;;;;40.10;26.27;;;;;;;;;;4903010;28;20584;-45
2023/06/11 07:17:25;;;;;;;38.72;26.90;;;;;;;;;;4898317;28;20120;-47
2023/06/11 07:19:54;;;;;;;38.15;26.48;;;;;;;;;;4903264;28;20044;-45
2023/06/11 07:22:22;;;;;;;35.20;25.92;;;;;;;;;;4895916;28;20049;-45
2023/06/11 07:24:51;;;;;;;40.28;25.20;;;;;;;;;;4906957;28;20611;-45
2023/06/11 07:27:21;;;;;;;36.20;25.53;;;;;;;;;;4899951;28;20684;-45
2023/06/11 07:29:48;;;;;;;34.15;24.63;;;;;;;;;;4901036;28;20428;-44
2023/06/11 07:32:17;;;;;;;34.47;25.83;;;;;;;;;;4898779;28;20036;-44
2023/06/11 07:34:46;;;;;;;36.10;26.95;;;;;;;;;;4898248;28;20037;-44
2023/06/11 07:37:15;;;;;;;35.97;24.83;;;;;;;;;;4906656;28;20700;-45
2023/06/11 07:39:46;;;;;;;37.27;25.57;;;;;;;;;;4903347;28;20360;-44
2023/06/11 07:42:18;;;;;;;42.95;27.00;;;;;;;;;;4908203;28;20128;-44
2023/06/11 07:44:48;;;;;;;36.50;25.50;;;;;;;;;;4906903;28;20055;-44
2023/06/11 07:47:15;;;;;;;35.45;24.88;;;;;;;;;;4904685;28;20049;-46
2023/06/11 07:49:45;;;;;;;37.03;26.30;;;;;;;;;;4895666;28;20087;-47
2023/06/11 07:52:13;;;;;;;39.77;27.73;;;;;;;;;;4911756;28;20100;-44
2023/06/11 07:54:48;;;;;;;37.83;26.92;;;;;;;;;;4919823;28;20454;-45
2023/06/11 07:57:18;;;;;;;41.55;27.35;;;;;;;;;;4910583;28;20578;-44
2023/06/11 07:59:48;;;;;;;38.85;27.05;;;;;;;;;;4911246;28;20471;-46
2023/06/11 08:02:16;;;;;;;37.88;26.02;;;;;;;;;;4910235;28;20761;-45
2023/06/11 08:04:45;;;;;;;41.03;26.37;;;;;;;;;;4905994;28;20969;-45
2023/06/11 08:07:24;;;;;;;34.55;24.05;;;;;;;;;;4912469;28;20427;-44
2023/06/11 08:09:53;;;;;;;38.63;25.92;;;;;;;;;;4879756;28;20045;-45
2023/06/11 08:12:26;;;;;;;38.28;26.17;;;;;;;;;;4884917;28;20724;-45
2023/06/11 08:14:54;;;;;;;35.85;25.20;;;;;;;;;;4911370;28;20339;-47
2023/06/11 08:17:24;;;;;;;39.03;25.60;;;;;;;;;;4911575;28;20343;-45
2023/06/11 08:19:52;;;;;;;39.08;27.05;;;;;;;;;;4886652;28;20199;-45
2023/06/11 08:22:21;;;;;;;40.20;26.73;;;;;;;;;;4885622;28;21151;-45
2023/06/11 08:24:50;;;;;;;40.83;27.33;;;;;;;;;;4905275;28;20116;-44
2023/06/11 08:27:18;;;;;;;40.45;27.52;;;;;;;;;;4918814;28;20446;-45
2023/06/11 08:29:49;;;;;;;38.13;26.77;;;;;;;;;;4891104;28;20900;-45
2023/06/11 08:32:17;;;;;;;38.28;26.00;;;;;;;;;;4893682;28;20036;-44
2023/06/11 08:34:45;;;;;;;38.75;27.48;;;;;;;;;;4916977;28;20908;-45
2023/06/11 08:37:16;;;;;;;37.47;26.23;;;;;;;;;;4904635;28;20119;-44
2023/06/11 08:39:44;;;;;;;40.67;27.15;;;;;;;;;;4907968;28;20620;-44
2023/06/11 08:42:12;;;;;;;36.40;24.93;;;;;;;;;;4906573;28;20040;-45
2023/06/11 08:44:41;;;;;;;37.22;25.85;;;;;;;;;;4903284;28;20143;-44
2023/06/11 08:47:13;;;;;;;37.80;26.63;;;;;;;;;;4910004;28;20742;-44
2023/06/11 08:49:43;;;;;;;35.33;26.23;;;;;;;;;;4885961;28;20526;-46
2023/06/11 08:52:19;;;;;;;38.65;26.88;;;;;;;;;;4912685;28;20479;-47
2023/06/11 08:54:54;;;;;;;21.17;15.90;;;;;;;;;;4918765;28;20037;-43
2023/06/11 08:57:25;;;;;;;22.55;15.13;;;;;;;;;;4889517;28;20813;-46
2023/06/11 08:59:53;;;;;;;27.70;20.60;;;;;;;;;;4916738;28;20433;-44
2023/06/11 09:02:28;;;;;;;24.23;16.83;;;;;;;;;;4901727;28;20635;-45
2023/06/11 09:04:58;;;;;;;16.42;12.10;;;;;;;;;;4902164;28;20239;-46
2023/06/11 09:07:27;;;;;;;37.07;23.27;;;;;;;;;;4909146;28;20033;-44
2023/06/11 09:12:30;;;;;;;28.45;19.70;;;;;;;;;;4869476;28;20439;-63
2023/06/11 09:14:58;;;;;;;30.25;19.20;;;;;;;;;;4959030;28;20042;-64
2023/06/11 09:17:33;;;;;;;31.13;20.95;;;;;;;;;;4973951;28;20053;-64
2023/06/11 09:20:04;;;;;;;29.07;21.13;;;;;;;;;;4939314;28;20042;-63
2023/06/11 09:22:32;;;;;;;25.00;16.80;;;;;;;;;;4948602;28;20039;-63
2023/06/11 09:25:02;;;;;;;27.33;18.05;;;;;;;;;;4952545;28;20042;-63
2023/06/11 09:27:32;;;;;;;19.10;13.05;;;;;;;;;;4946124;28;20745;-64
2023/06/11 09:30:07;;;;;;;30.85;20.48;;;;;;;;;;4952349;28;20850;-64
2023/06/11 09:32:40;;;;;;;27.87;19.07;;;;;;;;;;4968189;28;20042;-64
2023/06/11 09:35:08;;;;;;;34.33;22.98;;;;;;;;;;4957694;28;20035;-64
2023/06/11 09:37:41;;;;;;;32.42;21.45;;;;;;;;;;4955746;28;20046;-65
2023/06/11 09:40:10;;;;;;;34.40;21.98;;;;;;;;;;4955535;28;20506;-64
2023/06/11 09:42:40;;;;;;;37.22;24.75;;;;;;;;;;4933709;28;20056;-64
2023/06/11 09:45:13;;;;;;;37.27;23.80;;;;;;;;;;4947623;28;20084;-65
2023/06/11 09:47:43;;;;;;;37.60;24.90;;;;;;;;;;4953747;28;20038;-64
2023/06/11 09:50:12;;;;;;;36.05;22.88;;;;;;;;;;4966472;28;20050;-63
2023/06/11 09:52:42;;;;;;;42.25;25.75;;;;;;;;;;4952358;28;21226;-64
2023/06/11 09:55:10;;;;;;;39.60;26.17;;;;;;;;;;4950028;28;20142;-63
2023/06/11 09:57:38;;;;;;;41.93;26.30;;;;;;;;;;4947286;28;20034;-63
2023/06/11 10:00:09;;;;;;;47.03;27.48;;;;;;;;;;4955131;28;20046;-64
2023/06/11 10:02:38;;;;;;;41.60;27.38;;;;;;;;;;4924971;28;20045;-63
2023/06/11 10:05:09;;;;;;;42.42;27.50;;;;;;;;;;4961217;28;20038;-63
2023/06/11 10:07:40;;;;;;;38.45;24.23;;;;;;;;;;4945230;28;20041;-63
2023/06/11 10:10:10;;;;;;;39.27;24.50;;;;;;;;;;4954796;28;20038;-64
2023/06/11 10:12:38;;;;;;;40.15;26.20;;;;;;;;;;4961907;28;20066;-63
2023/06/11 10:15:10;;;;;;;42.42;26.35;;;;;;;;;;4950156;28;20070;-64
2023/06/11 10:17:45;;;;;;;31.25;19.60;;;;;;;;;;4965378;28;20514;-63
2023/06/11 10:20:18;;;;;;;36.03;23.10;;;;;;;;;;4955577;28;20035;-62
2023/06/11 10:22:46;;;;;;;28.40;18.70;;;;;;;;;;4959514;28;20047;-63
2023/06/11 10:25:14;;;;;;;32.15;19.67;;;;;;;;;;4958131;28;20050;-63
2023/06/11 10:27:42;;;;;;;31.48;20.42;;;;;;;;;;4952029;28;20104;-64
2023/06/11 10:30:10;;;;;;;28.13;18.33;;;;;;;;;;4962362;28;20042;-64
2023/06/11 10:32:48;;;;;;;27.63;17.83;;;;;;;;;;4965708;28;20046;-65
2023/06/11 10:35:23;;;;;;;29.73;19.03;;;;;;;;;;4958360;28;20050;-64
2023/06/11 10:37:52;;;;;;;34.50;19.90;;;;;;;;;;4961719;28;20285;-65
2023/06/11 10:40:20;;;;;;;33.60;19.58;;;;;;;;;;4971758;28;20042;-65
2023/06/11 10:42:52;;;;;;;34.67;19.88;;;;;;;;;;4955165;28;20065;-65
2023/06/11 10:45:21;;;;;;;34.63;21.45;;;;;;;;;;4969648;28;20042;-64
2023/06/11 10:47:49;;;;;;;39.47;23.53;;;;;;;;;;4957630;28;20043;-65
2023/06/11 10:50:24;;;;;;;39.33;23.90;;;;;;;;;;4969213;28;20186;-65
2023/06/11 10:52:55;;;;;;;36.58;23.67;;;;;;;;;;4955357;28;20075;-65
2023/06/11 10:55:25;;;;;;;39.30;24.95;;;;;;;;;;4967713;28;20042;-65
2023/06/11 10:57:56;;;;;;;40.35;24.45;;;;;;;;;;4957994;28;20046;-64
2023/06/11 11:03:50;;;;;;;41.33;24.73;;;;;;;;;;4934861;28;20050;-64
2023/06/11 11:06:28;;;;;;;41.60;25.27;;;;;;;;;;4959808;28;20241;-63
2023/06/11 11:08:57;;;;;;;43.35;26.30;;;;;;;;;;4953987;28;20045;-63
2023/06/11 11:11:26;;;;;;;41.65;26.17;;;;;;;;;;4961566;28;20050;-63
2023/06/11 11:13:54;;;;;;;41.87;26.80;;;;;;;;;;4947195;28;20055;-62
2023/06/11 11:16:22;;;;;;;42.08;27.58;;;;;;;;;;4964617;28;20034;-62
2023/06/11 11:18:50;;;;;;;42.80;26.33;;;;;;;;;;4958442;28;20046;-62
2023/06/11 11:21:18;;;;;;;46.28;29.05;;;;;;;;;;4967924;28;20057;-62
2023/06/11 11:23:46;;;;;;;42.97;28.30;;;;;;;;;;4959815;28;20101;-62
2023/06/11 11:26:18;;;;;;;45.57;27.87;;;;;;;;;;4951038;28;20523;-62
2023/06/11 11:28:46;;;;;;;53.67;33.78;;;;;;;;;;4956589;28;20056;-62
2023/06/11 11:31:18;;;;;;;55.60;34.90;;;;;;;;;;4971603;28;20039;-64
2023/06/11 11:33:48;;;;;;;54.97;33.00;;;;;;;;;;4960975;28;20038;-62
2023/06/11 11:36:16;;;;;;;42.70;27.88;;;;;;;;;;4966775;28;20046;-62
2023/06/11 11:38:44;;;;;;;55.67;32.67;;;;;;;;;;4962878;28;20568;-62
2023/06/11 11:41:12;;;;;;;66.30;36.25;;;;;;;;;;4948130;28;20601;-62
2023/06/11 11:43:42;;;;;;;59.85;35.95;;;;;;;;;;4973860;28;20774;-61
2023/06/11 11:46:17;;;;;;;48.58;28.60;;;;;;;;;;4949819;28;20089;-62
2023/06/11 11:48:45;;;;;;;51.25;31.05;;;;;;;;;;4972255;28;20784;-62
2023/06/11 11:51:15;;;;;;;44.27;27.90;;;;;;;;;;4957707;28;20045;-62
2023/06/11 11:53:43;;;;;;;44.97;28.13;;;;;;;;;;4951064;28;20050;-62
2023/06/11 11:56:11;;;;;;;49.85;29.05;;;;;;;;;;4951932;28;20078;-62
2023/06/11 11:58:42;;;;;;;46.15;28.25;;;;;;;;;;4949457;28;20046;-62
2023/06/11 12:01:16;;;;;;;43.42;26.85;;;;;;;;;;4963452;28;20045;-62
2023/06/11 12:03:44;;;;;;;43.30;25.23;;;;;;;;;;4948004;28;20492;-62
2023/06/11 12:06:12;;;;;;;49.90;28.95;;;;;;;;;;4963179;28;20100;-62
2023/06/11 12:08:40;;;;;;;37.05;22.52;;;;;;;;;;4957135;28;20588;-61
2023/06/11 12:11:07;;;;;;;45.97;28.27;;;;;;;;;;4916801;28;1271732;-61
2023/06/11 12:13:35;;;;;;;41.60;25.45;;;;;;;;;;4951301;28;20047;-62
2023/06/11 12:16:05;;;;;;;46.65;29.30;;;;;;;;;;4972720;28;20081;-62
2023/06/11 12:18:33;;;;;;;29.77;19.37;;;;;;;;;;4946132;28;20081;-62
2023/06/11 12:21:00;;;;;;;50.17;29.88;;;;;;;;;;4967780;28;20556;-62
2023/06/11 12:23:28;;;;;;;38.80;24.08;;;;;;;;;;4958973;28;20130;-62
2023/06/11 12:25:56;;;;;;;46.80;29.48;;;;;;;;;;4966763;28;20049;-62
2023/06/11 12:28:24;;;;;;;33.42;20.65;;;;;;;;;;4960400;28;20982;-62
2023/06/11 12:30:51;;;;;;;12.67;7.47;;;;;;;;;;4969382;28;20484;-62
2023/06/11 12:33:21;;;;;;;35.30;22.17;;;;;;;;;;4950106;28;20049;-62
2023/06/11 12:35:48;;;;;;;32.90;18.70;;;;;;;;;;4967768;28;20558;-62
2023/06/11 12:38:17;;;;;;;29.27;19.63;;;;;;;;;;4954872;28;20046;-62
2023/06/11 12:40:46;;;;;;;43.85;26.27;;;;;;;;;;4963065;28;20050;-62
2023/06/11 12:43:13;;;;;;;25.13;15.23;;;;;;;;;;4957580;28;20503;-62
2023/06/11 12:45:41;;;;;;;32.20;19.75;;;;;;;;;;4964939;28;20050;-63
2023/06/11 12:48:09;;;;;;;44.50;27.90;;;;;;;;;;4959302;28;20044;-61
2023/06/11 12:50:39;;;;;;;44.35;27.30;;;;;;;;;;4945168;28;20506;-62
2023/06/11 12:53:08;;;;;;;42.28;27.70;;;;;;;;;;4971825;28;20038;-62
2023/06/11 12:55:36;;;;;;;35.80;23.87;;;;;;;;;;4953875;28;20121;-62
2023/06/11 12:58:05;;;;;;;43.30;27.33;;;;;;;;;;4964380;28;20542;-62
2023/06/11 13:00:32;;;;;;;38.65;24.65;;;;;;;;;;4955408;28;20034;-61
2023/06/11 13:03:00;;;;;;;28.58;18.75;;;;;;;;;;4958534;28;20497;-62
2023/06/11 13:05:28;;;;;;;45.05;30.27;;;;;;;;;;4959893;28;20350;-62
2023/06/11 13:07:58;;;;;;;44.03;29.63;;;;;;;;;;4968005;28;20073;-61
2023/06/11 13:10:26;;;;;;;41.95;29.98;;;;;;;;;;4953367;28;20118;-61
2023/06/11 13:12:54;;;;;;;46.95;31.08;;;;;;;;;;4952139;28;20045;-62
2023/06/11 13:15:22;;;;;;;34.28;22.48;;;;;;;;;;4943147;28;20068;-62
2023/06/11 13:17:50;;;;;;;47.17;27.45;;;;;;;;;;4956564;28;20543;-62
2023/06/11 13:20:18;;;;;;;44.83;26.53;;;;;;;;;;4955947;28;20034;-62
2023/06/11 13:22:48;;;;;;;43.85;27.52;;;;;;;;;;4946590;28;20073;-62
2023/06/11 13:25:17;;;;;;;42.17;26.33;;;;;;;;;;4940081;28;20049;-62
2023/06/11 13:27:45;;;;;;;41.72;25.85;;;;;;;;;;4964355;28;20052;-62
2023/06/11 13:30:13;;;;;;;49.28;31.00;;;;;;;;;;4948840;28;20051;-62
2023/06/11 13:32:41;;;;;;;46.60;30.60;;;;;;;;;;4956383;28;20042;-62
2023/06/11 13:35:09;;;;;;;49.15;31.70;;;;;;;;;;4959020;28;20042;-62
2023/06/11 13:37:37;;;;;;;50.97;32.72;;;;;;;;;;4957690;28;20677;-62
2023/06/11 13:40:05;;;;;;;53.35;33.25;;;;;;;;;;4959356;28;20041;-62
2023/06/11 13:42:35;;;;;;;44.28;25.35;;;;;;;;;;4955759;28;20185;-61
2023/06/11 13:45:04;;;;;;;46.70;28.10;;;;;;;;;;4952392;28;20046;-63
2023/06/11 13:47:32;;;;;;;48.35;29.63;;;;;;;;;;4948922;28;20125;-62
2023/06/11 13:50:00;;;;;;;46.58;29.70;;;;;;;;;;4960047;28;20077;-62
2023/06/11 13:52:28;;;;;;;46.50;28.10;;;;;;;;;;4952058;28;20100;-62
2023/06/11 13:54:56;;;;;;;44.35;26.45;;;;;;;;;;4959244;28;20052;-62
2023/06/11 13:57:27;;;;;;;44.10;26.80;;;;;;;;;;4959317;28;20050;-62
2023/06/11 13:59:57;;;;;;;38.35;24.27;;;;;;;;;;4951857;28;20575;-62
2023/06/11 14:02:26;;;;;;;46.53;30.05;;;;;;;;;;4957641;28;20477;-62
2023/06/11 14:04:54;;;;;;;38.60;24.27;;;;;;;;;;4960581;28;20877;-62
2023/06/11 14:07:22;;;;;;;44.35;27.65;;;;;;;;;;4966594;28;20031;-61
2023/06/11 14:09:51;;;;;;;40.60;27.13;;;;;;;;;;4958479;28;20038;-62
2023/06/11 14:12:19;;;;;;;45.45;27.20;;;;;;;;;;4956200;28;20073;-55
2023/06/11 14:14:46;;;;;;;45.20;28.40;;;;;;;;;;4961368;28;20038;-62
2023/06/11 14:17:17;;;;;;;39.33;25.35;;;;;;;;;;4957134;28;20107;-63
2023/06/11 14:19:44;;;;;;;36.42;22.90;;;;;;;;;;4954608;28;20052;-63
2023/06/11 14:22:12;;;;;;;40.33;25.67;;;;;;;;;;4954434;28;20046;-63
2023/06/11 14:24:40;;;;;;;40.95;24.15;;;;;;;;;;4961694;28;20041;-64
2023/06/11 14:27:08;;;;;;;38.35;25.00;;;;;;;;;;4961470;28;20126;-63
2023/06/11 14:29:36;;;;;;;22.77;13.00;;;;;;;;;;4959761;28;20038;-62
2023/06/11 14:32:04;;;;;;;34.95;21.55;;;;;;;;;;4958533;28;20085;-61
2023/06/11 14:34:34;;;;;;;40.30;24.63;;;;;;;;;;4952836;28;20034;-62
2023/06/11 14:37:23;;;;;;;33.40;20.95;;;;;;;;;;4980073;28;21889;-61